Time;durP1;ratioP1;P1;durP2;ratioP2;P2;SDS_P1;SDS_P2;PMS_P1;PMS_P2;Temp;Humidity;BMP_temperature;BMP_pressure;BME280_temperature;BME280_humidity;BME280_pressure;Samples;Min_cycle;Max_cycle;Signal;HPM_P1;HPM_P2
2021/06/12 00:00:05;;;;;;;39.47;35.33;;;;;;;;;;2105759;28;20217;-78
2021/06/12 00:01:06;;;;;;;41.05;36.50;;;;;;;;;;2105776;28;20303;-78
2021/06/12 00:02:07;;;;;;;41.70;37.25;;;;;;;;;;2105732;28;20248;-79
2021/06/12 00:03:08;;;;;;;43.90;36.80;;;;;;;13.47;nan;98900.06;2105377;28;20227;-77
2021/06/12 00:04:11;;;;;;;45.08;38.20;;;;;;;13.48;nan;98912.38;2105607;28;20229;-78
2021/06/12 00:05:12;;;;;;;45.67;38.72;;;;;;;;;;2104932;28;20326;-78
2021/06/12 00:06:12;;;;;;;44.72;38.67;;;;;;;13.43;nan;98894.53;2096488;28;20237;-78
2021/06/12 00:07:14;;;;;;;44.90;38.43;;;;;;;13.44;nan;98900.69;2096707;28;20233;-78
2021/06/12 00:08:14;;;;;;;43.90;39.20;;;;;;;13.38;nan;98902.78;2104838;28;20229;-77
2021/06/12 00:09:16;;;;;;;45.23;39.07;;;;;;;13.41;nan;98901.34;2105954;28;20672;-77
2021/06/12 00:10:17;;;;;;;43.05;38.65;;;;;;;;;;2105002;28;20236;-77
2021/06/12 00:11:19;;;;;;;48.65;38.55;;;;;;;13.43;nan;98899.13;2105003;28;20263;-77
2021/06/12 00:12:20;;;;;;;43.00;38.38;;;;;;;13.41;nan;98902.13;2104376;28;20228;-77
2021/06/12 00:13:21;;;;;;;45.10;38.57;;;;;;;13.40;nan;98922.00;2104595;28;20245;-77
2021/06/12 00:14:22;;;;;;;46.13;37.95;;;;;;;13.38;nan;98913.50;2096227;28;20230;-78
2021/06/12 00:15:24;;;;;;;43.80;39.00;;;;;;;13.37;nan;98917.25;2104491;28;20605;-77
2021/06/12 00:16:25;;;;;;;45.28;39.55;;;;;;;13.39;nan;98915.06;2104177;28;20308;-77
2021/06/12 00:17:26;;;;;;;42.60;38.23;;;;;;;13.38;nan;98908.13;2104812;28;20229;-77
2021/06/12 00:18:27;;;;;;;43.60;39.00;;;;;;;13.36;nan;98915.69;2104840;28;20229;-77
2021/06/12 00:19:29;;;;;;;44.70;38.77;;;;;;;13.36;nan;98909.53;2096112;28;20774;-77
2021/06/12 00:20:34;;;;;;;42.15;37.25;;;;;;;13.34;nan;98907.19;2105084;28;20222;-78
2021/06/12 00:21:36;;;;;;;45.05;37.17;;;;;;;13.35;nan;98999.84;2104526;28;20561;-77
2021/06/12 00:22:37;;;;;;;45.65;39.55;;;;;;;13.33;nan;99007.44;2105040;28;20297;-77
2021/06/12 00:23:38;;;;;;;43.47;38.77;;;;;;;13.31;nan;99003.50;2104318;28;20221;-78
2021/06/12 00:24:39;;;;;;;44.05;38.88;;;;;;;13.31;nan;98897.09;2104548;28;20703;-78
2021/06/12 00:25:41;;;;;;;42.50;38.20;;;;;;;;;;2104215;28;20580;-77
2021/06/12 00:26:42;;;;;;;42.17;37.70;;;;;;;13.29;nan;99001.09;2096503;28;20692;-78
2021/06/12 00:27:43;;;;;;;42.77;38.13;;;;;;;13.29;nan;98888.56;2104907;28;20671;-77
2021/06/12 00:28:44;;;;;;;42.65;38.28;;;;;;;13.27;nan;98906.88;2104347;28;20221;-77
2021/06/12 00:29:45;;;;;;;46.37;37.83;;;;;;;;;;2104835;28;20254;-77
2021/06/12 00:30:46;;;;;;;44.70;38.30;;;;;;;13.27;nan;98906.88;2105794;28;20252;-77
2021/06/12 00:31:47;;;;;;;40.90;36.67;;;;;;;13.28;nan;98893.16;2104729;28;20224;-77
2021/06/12 00:32:48;;;;;;;40.47;36.13;;;;;;;13.25;nan;98888.44;2104793;28;20213;-77
2021/06/12 00:33:49;;;;;;;41.97;37.57;;;;;;;13.22;nan;98872.22;2105505;28;20747;-77
2021/06/12 00:34:52;;;;;;;42.10;37.70;;;;;;;13.21;nan;98892.06;2104829;28;20749;-77
2021/06/12 00:35:52;;;;;;;42.97;36.55;;;;;;;;;;2096551;28;20218;-78
2021/06/12 00:36:53;;;;;;;42.42;36.88;;;;;;;13.21;nan;98902.78;2104562;28;20286;-77
2021/06/12 00:37:55;;;;;;;41.87;37.50;;;;;;;13.18;nan;98892.66;2104043;28;20274;-77
2021/06/12 00:38:55;;;;;;;41.45;37.17;;;;;;;13.13;nan;98874.09;2096151;28;20217;-77
2021/06/12 00:39:56;;;;;;;40.20;36.03;;;;;;;13.16;nan;98868.09;2095694;28;20230;-78
2021/06/12 00:40:57;;;;;;;41.92;36.72;;;;;;;22.40;100.00;164746.84;2095873;28;20635;-78
2021/06/12 00:41:58;;;;;;;44.50;37.33;;;;;;;;;;2096120;28;20233;-77
2021/06/12 00:42:59;;;;;;;43.40;37.50;;;;;;;13.20;nan;98885.91;2104694;28;20236;-77
2021/06/12 00:44:00;;;;;;;41.50;37.10;;;;;;;13.14;nan;98902.44;2105459;28;20228;-78
2021/06/12 00:45:01;;;;;;;39.83;35.83;;;;;;;13.12;nan;98888.56;2104405;28;20667;-78
2021/06/12 00:46:02;;;;;;;41.70;37.20;;;;;;;13.10;nan;98896.13;2095918;28;20561;-77
2021/06/12 00:47:03;;;;;;;41.13;36.85;;;;;;;13.07;nan;98902.13;2104720;28;20709;-77
2021/06/12 00:48:06;;;;;;;44.03;36.85;;;;;;;13.02;nan;98895.03;2104543;28;20660;-77
2021/06/12 00:49:07;;;;;;;42.88;38.47;;;;;;;13.01;nan;98888.88;2104596;28;20278;-77
2021/06/12 00:50:11;;;;;;;41.22;37.10;;;;;;;13.00;nan;98898.03;2087867;28;20229;-78
2021/06/12 00:51:12;;;;;;;45.42;38.13;;;;;;;13.06;nan;98900.56;2104664;28;20213;-77
2021/06/12 00:52:13;;;;;;;40.57;36.20;;;;;;;12.99;nan;98982.16;2104650;28;20321;-77
2021/06/12 00:53:18;;;;;;;42.38;36.00;;;;;;;13.05;nan;98905.13;2104718;28;20226;-77
2021/06/12 00:54:19;;;;;;;42.13;37.10;;;;;;;13.03;nan;98896.63;2102505;28;20657;-77
2021/06/12 00:55:20;;;;;;;43.45;37.13;;;;;;;;;;2104619;28;20229;-78
2021/06/12 00:56:22;;;;;;;48.00;37.47;;;;;;;13.00;nan;98887.31;2105490;28;20218;-77
2021/06/12 00:57:22;;;;;;;40.45;35.83;;;;;;;12.99;nan;98895.66;2104152;28;20660;-77
2021/06/12 00:58:25;;;;;;;40.07;35.87;;;;;;;12.97;nan;98893.31;2095619;28;20555;-77
2021/06/12 00:59:26;;;;;;;41.17;36.83;;;;;;;12.97;nan;98855.81;2089396;28;20305;-77
2021/06/12 01:00:27;;;;;;;46.13;36.63;;;;;;;;;;2104138;28;20234;-78
2021/06/12 01:01:28;;;;;;;40.72;36.42;;;;;;;12.98;nan;98852.03;2113093;28;20311;-77
2021/06/12 01:02:29;;;;;;;40.47;36.27;;;;;;;12.96;nan;98897.09;2096913;28;20230;-77
2021/06/12 01:03:30;;;;;;;42.58;37.10;;;;;;;12.96;nan;98896.31;2096819;28;20257;-77
2021/06/12 01:04:31;;;;;;;40.95;36.67;;;;;;;12.91;nan;98851.72;2095800;28;20229;-77
2021/06/12 01:05:33;;;;;;;41.10;36.97;;;;;;;12.91;nan;98846.38;2096244;28;20222;-77
2021/06/12 01:06:34;;;;;;;40.55;36.38;;;;;;;12.95;nan;98890.16;2096973;28;20222;-77
2021/06/12 01:07:36;;;;;;;42.10;37.53;;;;;;;12.92;nan;98884.63;2096117;28;20222;-76
2021/06/12 01:08:38;;;;;;;40.55;36.15;;;;;;;-144.27;0.00;69759.91;2096274;28;20225;-78
2021/06/12 01:09:39;;;;;;;41.00;36.78;;;;;;;;;;2102947;28;20217;-77
2021/06/12 01:10:40;;;;;;;38.27;34.43;;;;;;;;;;2105341;28;20225;-78
2021/06/12 01:11:44;;;;;;;39.57;35.53;;;;;;;;;;2104142;28;20217;-77
2021/06/12 01:12:54;;;;;;;39.53;35.30;;;;;;;;;;2104459;28;21050;-77
2021/06/12 01:13:58;;;;;;;40.38;35.13;;;;;;;;;;2104371;28;20225;-77
2021/06/12 01:15:03;;;;;;;40.70;36.35;;;;;;;22.41;100.00;91335.66;2104097;28;20221;-77
2021/06/12 01:16:07;;;;;;;40.88;36.63;;;;;;;;;;2104610;28;20229;-77
2021/06/12 01:17:13;;;;;;;40.90;36.63;;;;;;;-143.94;100.00;91335.28;2097667;28;20309;-77
2021/06/12 01:18:15;;;;;;;39.25;35.28;;;;;;;;;;2101419;28;20217;-78
2021/06/12 01:19:24;;;;;;;40.03;35.70;;;;;;;;;;2105186;28;20218;-78
2021/06/12 01:20:41;;;;;;;40.70;34.20;;;;;;;12.83;nan;98945.44;2103954;28;20303;-78
2021/06/12 01:21:45;;;;;;;39.70;35.60;;;;;;;12.86;nan;98988.44;2104126;28;20236;-78
2021/06/12 01:22:54;;;;;;;39.55;35.40;;;;;;;;;;2105137;28;20317;-77
2021/06/12 01:24:06;;;;;;;40.53;36.25;;;;;;;;;;2104945;28;20267;-77
2021/06/12 01:25:08;;;;;;;41.47;35.92;;;;;;;;;;2105266;28;20222;-78
2021/06/12 01:26:14;;;;;;;41.95;36.97;;;;;;;;;;2104967;28;20229;-77
2021/06/12 01:27:26;;;;;;;40.42;36.03;;;;;;;;;;2105181;28;20225;-77
2021/06/12 01:28:34;;;;;;;45.53;36.10;;;;;;;;;;2104749;28;20232;-77
2021/06/12 01:29:42;;;;;;;45.13;37.15;;;;;;;;;;2104857;28;20223;-78
2021/06/12 01:30:45;;;;;;;43.25;36.67;;;;;;;12.65;nan;98982.88;2104108;28;20668;-77
2021/06/12 01:31:47;;;;;;;41.97;36.50;;;;;;;;;;2104410;28;20591;-78
2021/06/12 01:32:49;;;;;;;41.67;37.28;;;;;;;;;;2105246;28;20221;-78
2021/06/12 01:33:52;;;;;;;41.00;36.67;;;;;;;;;;2105194;28;20225;-78
2021/06/12 01:34:55;;;;;;;42.42;37.90;;;;;;;12.64;nan;98889.50;2104908;28;20232;-78
2021/06/12 01:35:58;;;;;;;43.92;37.88;;;;;;;;;;2105209;28;20224;-77
2021/06/12 01:37:00;;;;;;;41.97;37.58;;;;;;;;;;2103982;28;20221;-78
2021/06/12 01:38:01;;;;;;;42.88;37.70;;;;;;;12.60;nan;98873.31;2104442;28;20277;-78
2021/06/12 01:39:03;;;;;;;43.53;37.33;;;;;;;;;;2104283;28;20225;-78
2021/06/12 01:40:05;;;;;;;41.85;37.30;;;;;;;;;;2104533;28;20221;-78
2021/06/12 01:41:08;;;;;;;42.67;38.08;;;;;;;;;;2104422;28;20209;-77
2021/06/12 01:42:10;;;;;;;42.10;37.70;;;;;;;;;;2103507;28;20285;-78
2021/06/12 01:43:11;;;;;;;42.13;37.53;;;;;;;;;;2104475;28;20213;-77
2021/06/12 01:44:13;;;;;;;41.95;37.35;;;;;;;;;;2105008;28;20240;-78
2021/06/12 01:45:14;;;;;;;43.38;38.33;;;;;;;;;;2104266;28;20746;-78
2021/06/12 01:46:17;;;;;;;41.22;36.88;;;;;;;;;;2104411;28;20232;-77
2021/06/12 01:47:19;;;;;;;42.58;37.75;;;;;;;;;;2104250;28;20225;-78
2021/06/12 01:48:21;;;;;;;43.03;38.58;;;;;;;;;;2104228;28;20592;-77
2021/06/12 01:49:22;;;;;;;43.28;38.88;;;;;;;12.48;nan;98960.63;2096106;28;20244;-77
2021/06/12 01:50:23;;;;;;;46.53;38.20;;;;;;;;;;2104099;28;20244;-77
2021/06/12 01:51:25;;;;;;;41.70;37.22;;;;;;;;;;2103875;28;20282;-77
2021/06/12 01:52:26;;;;;;;43.08;37.92;;;;;;;12.45;nan;98972.75;2095889;28;20229;-78
2021/06/12 01:53:30;;;;;;;45.35;38.30;;;;;;;12.45;nan;98850.44;2104378;28;20765;-78
2021/06/12 01:54:32;;;;;;;42.80;38.40;;;;;;;;;;2105056;28;20226;-78
2021/06/12 01:55:34;;;;;;;44.75;39.65;;;;;;;12.37;nan;98966.28;2105068;28;20229;-77
2021/06/12 01:56:36;;;;;;;43.10;38.45;;;;;;;;;;2104255;28;20358;-78
2021/06/12 01:57:39;;;;;;;45.80;38.45;;;;;;;12.36;nan;98916.53;2104397;28;20228;-78
2021/06/12 01:58:42;;;;;;;46.15;39.15;;;;;;;;;;2104664;28;20228;-78
2021/06/12 01:59:43;;;;;;;43.58;38.65;;;;;;;12.35;nan;98791.13;2104917;28;20229;-78
2021/06/12 02:00:45;;;;;;;42.07;37.37;;;;;;;12.37;nan;98863.81;2105183;28;20254;-78
2021/06/12 02:01:48;;;;;;;42.15;37.78;;;;;;;12.35;nan;98850.75;2104141;28;20492;-77
2021/06/12 02:02:50;;;;;;;43.90;38.97;;;;;;;;;;2104483;28;20767;-77
2021/06/12 02:03:52;;;;;;;42.20;37.85;;;;;;;12.36;nan;98857.69;2104044;28;20225;-77
2021/06/12 02:04:55;;;;;;;42.42;37.80;;;;;;;;;;2103804;28;20225;-78
2021/06/12 02:05:56;;;;;;;43.15;38.55;;;;;;;12.36;nan;98863.03;2104323;28;20220;-78
2021/06/12 02:07:01;;;;;;;42.92;37.78;;;;;;;12.38;nan;98860.81;2105004;28;20643;-77
2021/06/12 02:08:03;;;;;;;44.28;38.47;;;;;;;12.34;nan;98784.19;2104091;28;20225;-77
2021/06/12 02:09:05;;;;;;;41.70;37.38;;;;;;;12.38;nan;98860.03;2095840;28;20222;-78
2021/06/12 02:10:08;;;;;;;42.03;37.65;;;;;;;12.32;nan;98845.22;2104391;28;20587;-78
2021/06/12 02:11:09;;;;;;;45.13;38.42;;;;;;;;;;2103891;28;20240;-78
2021/06/12 02:12:11;;;;;;;42.63;38.03;;;;;;;12.32;nan;98851.38;2104433;28;20799;-77
2021/06/12 02:13:12;;;;;;;43.42;38.72;;;;;;;12.29;nan;98857.34;2105117;28;20229;-77
2021/06/12 02:14:14;;;;;;;43.03;38.50;;;;;;;12.27;nan;98854.19;2105013;28;20233;-78
2021/06/12 02:15:16;;;;;;;46.72;38.70;;;;;;;12.28;nan;98855.00;2105000;28;20551;-78
2021/06/12 02:16:21;;;;;;;41.17;36.97;;;;;;;12.29;nan;98856.56;2096617;28;20579;-77
2021/06/12 02:17:24;;;;;;;42.53;37.88;;;;;;;12.29;nan;98872.59;2096062;28;20689;-78
2021/06/12 02:18:26;;;;;;;42.95;37.80;;;;;;;;;;2101644;28;20237;-77
2021/06/12 02:19:27;;;;;;;46.38;38.75;;;;;;;;;;2104282;28;20278;-77
2021/06/12 02:20:28;;;;;;;43.83;38.90;;;;;;;12.30;nan;98788.59;2103736;28;20277;-78
2021/06/12 02:21:29;;;;;;;41.67;37.22;;;;;;;;;;2104143;28;20229;-77
2021/06/12 02:22:30;;;;;;;44.38;39.78;;;;;;;;;;2104933;28;20225;-77
2021/06/12 02:23:31;;;;;;;42.53;38.03;;;;;;;;;;2104242;28;20252;-78
2021/06/12 02:24:32;;;;;;;43.88;39.17;;;;;;;;;;2104283;28;20665;-78
2021/06/12 02:25:33;;;;;;;46.00;38.30;;;;;;;;;;2104402;28;20243;-78
2021/06/12 02:26:37;;;;;;;43.05;38.75;;;;;;;;;;2103744;28;20217;-78
2021/06/12 02:27:41;;;;;;;42.97;37.90;;;;;;;;;;2104314;28;20275;-77
2021/06/12 02:28:42;;;;;;;42.83;37.90;;;;;;;;;;2112256;28;20312;-77
2021/06/12 02:29:43;;;;;;;43.08;38.50;;;;;;;;;;2104959;28;20256;-77
2021/06/12 02:30:45;;;;;;;42.47;37.97;;;;;;;;;;2104915;28;20222;-77
2021/06/12 02:31:48;;;;;;;42.08;37.75;;;;;;;;;;2105057;28;20240;-77
2021/06/12 02:32:53;;;;;;;42.78;38.13;;;;;;;;;;2104146;28;20229;-78
2021/06/12 02:33:54;;;;;;;44.38;38.15;;;;;;;;;;2103900;28;20229;-77
2021/06/12 02:34:55;;;;;;;45.72;38.65;;;;;;;;;;2103468;28;20221;-78
2021/06/12 02:35:56;;;;;;;44.63;39.20;;;;;;;12.29;nan;98975.06;2104161;28;20241;-78
2021/06/12 02:36:57;;;;;;;43.47;38.97;;;;;;;;;;2104880;28;20621;-78
2021/06/12 02:37:58;;;;;;;42.67;38.10;;;;;;;;;;2103699;28;20237;-77
2021/06/12 02:38:59;;;;;;;42.88;38.47;;;;;;;12.26;nan;98942.78;2104182;28;20230;-77
2021/06/12 02:40:00;;;;;;;43.60;39.17;;;;;;;;;;2104970;28;20252;-78
2021/06/12 02:41:00;;;;;;;42.53;37.88;;;;;;;;;;2105178;28;20217;-77
2021/06/12 02:42:02;;;;;;;41.67;37.27;;;;;;;;;;2106267;28;20309;-77
2021/06/12 02:43:03;;;;;;;48.17;38.22;;;;;;;;;;2106317;28;20626;-77
2021/06/12 02:44:04;;;;;;;41.90;36.97;;;;;;;;;;2106421;28;20286;-77
2021/06/12 02:45:07;;;;;;;42.80;38.05;;;;;;;;;;2105167;28;20574;-77
2021/06/12 02:46:11;;;;;;;42.65;38.10;;;;;;;12.28;nan;98855.78;2105373;28;20666;-76
2021/06/12 02:47:12;;;;;;;40.72;36.53;;;;;;;;;;2106439;28;20312;-77
2021/06/12 02:48:16;;;;;;;41.40;37.00;;;;;;;;;;2106438;28;20710;-78
2021/06/12 02:49:18;;;;;;;41.45;37.17;;;;;;;12.26;nan;98958.84;2122092;27;20231;-77
2021/06/12 02:50:21;;;;;;;41.42;36.92;;;;;;;;;;2122173;27;20781;-77
2021/06/12 02:51:22;;;;;;;41.15;36.80;;;;;;;;;;2105399;28;20251;-77
2021/06/12 02:52:25;;;;;;;41.50;37.03;;;;;;;;;;2096839;28;20230;-77
2021/06/12 02:53:27;;;;;;;40.60;36.30;;;;;;;;;;2097219;28;20578;-77
2021/06/12 02:54:29;;;;;;;41.33;37.10;;;;;;;;;;2103860;28;20245;-78
2021/06/12 02:55:30;;;;;;;40.95;36.65;;;;;;;;;;2105757;28;20221;-78
2021/06/12 02:56:32;;;;;;;42.13;37.58;;;;;;;;;;2103395;28;20687;-78
2021/06/12 02:57:34;;;;;;;40.92;36.50;;;;;;;;;;2105602;28;20217;-77
2021/06/12 02:58:36;;;;;;;44.38;38.15;;;;;;;;;;2105364;28;20224;-77
2021/06/12 02:59:38;;;;;;;42.63;37.97;;;;;;;;;;2105508;28;20278;-77
2021/06/12 03:00:39;;;;;;;42.53;37.97;;;;;;;;;;2092679;28;20222;-77
2021/06/12 03:01:40;;;;;;;41.80;36.88;;;;;;;;;;2101448;28;20221;-78
2021/06/12 03:02:43;;;;;;;40.95;36.75;;;;;;;;;;2106272;28;20641;-77
2021/06/12 03:03:46;;;;;;;40.92;36.92;;;;;;;;;;2105301;28;20312;-77
2021/06/12 03:04:48;;;;;;;41.95;37.45;;;;;;;;;;2105360;28;20698;-77
2021/06/12 03:05:50;;;;;;;40.97;36.80;;;;;;;;;;2097189;28;20309;-77
2021/06/12 03:06:52;;;;;;;41.35;36.95;;;;;;;;;;2114182;28;20595;-77
2021/06/12 03:07:54;;;;;;;41.00;36.50;;;;;;;;;;2104959;28;20229;-78
2021/06/12 03:08:55;;;;;;;41.70;37.30;;;;;;;;;;2105588;28;20237;-77
2021/06/12 03:09:56;;;;;;;41.15;36.95;;;;;;;12.15;nan;98991.19;2106279;28;20225;-78
2021/06/12 03:10:58;;;;;;;40.95;36.65;;;;;;;;;;2105210;28;20735;-78
2021/06/12 03:11:59;;;;;;;44.70;38.03;;;;;;;;;;2105404;28;20618;-78
2021/06/12 03:13:01;;;;;;;44.10;36.77;;;;;;;;;;2106225;28;20310;-78
2021/06/12 03:14:02;;;;;;;41.40;36.90;;;;;;;;;;2105071;28;20603;-77
2021/06/12 03:15:04;;;;;;;40.37;36.20;;;;;;;;;;2105480;28;20284;-77
2021/06/12 03:16:05;;;;;;;40.42;36.13;;;;;;;;;;2105217;28;20702;-78
2021/06/12 03:17:06;;;;;;;39.78;35.78;;;;;;;;;;2105556;28;20221;-77
2021/06/12 03:18:07;;;;;;;40.72;36.47;;;;;;;12.23;nan;98944.19;2106157;28;20219;-77
2021/06/12 03:19:10;;;;;;;39.50;35.20;;;;;;;;;;2102862;28;20336;-78
2021/06/12 03:20:12;;;;;;;40.63;36.33;;;;;;;;;;2105337;28;20237;-77
2021/06/12 03:21:14;;;;;;;40.97;36.80;;;;;;;;;;2103451;28;20234;-77
2021/06/12 03:22:15;;;;;;;42.00;36.55;;;;;;;;;;2094006;28;20237;-77
2021/06/12 03:23:17;;;;;;;41.07;36.13;;;;;;;;;;2105431;28;20221;-78
2021/06/12 03:24:17;;;;;;;41.55;37.22;;;;;;;;;;2105206;28;20240;-77
2021/06/12 03:25:20;;;;;;;43.70;37.50;;;;;;;;;;2096997;28;20237;-77
2021/06/12 03:26:21;;;;;;;41.05;36.72;;;;;;;;;;2105025;28;20229;-78
2021/06/12 03:27:22;;;;;;;41.05;36.92;;;;;;;;;;2106044;28;20314;-77
2021/06/12 03:28:23;;;;;;;46.58;36.97;;;;;;;;;;2103752;28;20687;-77
2021/06/12 03:29:24;;;;;;;44.20;36.58;;;;;;;;;;2105292;28;20229;-76
2021/06/12 03:30:25;;;;;;;40.58;36.35;;;;;;;12.31;nan;98801.63;2105359;28;20229;-77
2021/06/12 03:31:27;;;;;;;40.60;36.45;;;;;;;;;;2105218;28;20222;-77
2021/06/12 03:32:27;;;;;;;45.22;35.78;;;;;;;;;;2106082;28;20229;-77
2021/06/12 03:33:29;;;;;;;41.80;36.20;;;;;;;;;;2105119;28;20737;-77
2021/06/12 03:34:31;;;;;;;40.60;36.05;;;;;;;;;;2105188;28;20221;-77
2021/06/12 03:35:32;;;;;;;41.10;36.15;;;;;;;12.43;nan;98868.72;2097053;28;20225;-77
2021/06/12 03:36:34;;;;;;;39.72;35.58;;;;;;;;;;2096868;28;20221;-77
2021/06/12 03:37:35;;;;;;;40.83;36.67;;;;;;;12.42;nan;98877.84;2105297;28;20217;-77
2021/06/12 03:38:37;;;;;;;39.90;35.47;;;;;;;;;;2104774;28;20228;-77
2021/06/12 03:39:37;;;;;;;38.97;34.78;;;;;;;12.32;nan;98958.38;2104907;28;20308;-77
2021/06/12 03:40:39;;;;;;;44.20;35.63;;;;;;;;;;2096567;28;20226;-77
2021/06/12 03:41:39;;;;;;;40.60;35.50;;;;;;;;;;2105074;28;20221;-77
2021/06/12 03:42:41;;;;;;;41.53;36.93;;;;;;;;;;2105086;28;20236;-76
2021/06/12 03:43:41;;;;;;;39.20;35.08;;;;;;;;;;2105001;28;20232;-77
2021/06/12 03:44:44;;;;;;;39.93;35.70;;;;;;;;;;2105230;28;20221;-77
2021/06/12 03:45:45;;;;;;;43.13;35.55;;;;;;;12.49;nan;98962.22;2105892;28;20245;-77
2021/06/12 03:46:48;;;;;;;39.78;35.58;;;;;;;;;;2105881;28;20218;-77
2021/06/12 03:47:49;;;;;;;41.50;35.90;;;;;;;;;;2105905;28;20217;-77
2021/06/12 03:48:50;;;;;;;41.78;36.90;;;;;;;;;;2106006;28;20248;-77
2021/06/12 03:49:52;;;;;;;40.22;36.03;;;;;;;;;;2104623;28;20209;-77
2021/06/12 03:50:55;;;;;;;42.20;36.25;;;;;;;12.63;nan;98995.78;2103924;28;20221;-77
2021/06/12 03:51:55;;;;;;;38.25;34.20;;;;;;;;;;2104720;28;20251;-77
2021/06/12 03:52:57;;;;;;;46.03;36.97;;;;;;;12.67;nan;98937.06;2105750;28;20225;-77
2021/06/12 03:53:58;;;;;;;41.95;35.50;;;;;;;;;;2104962;28;20237;-76
2021/06/12 03:55:00;;;;;;;40.33;36.03;;;;;;;12.71;nan;98970.94;2104520;28;20229;-77
2021/06/12 03:56:01;;;;;;;39.05;35.03;;;;;;;;;;2096631;28;20225;-77
2021/06/12 03:57:03;;;;;;;44.22;35.53;;;;;;;;;;2105175;28;20217;-77
2021/06/12 03:58:03;;;;;;;39.00;34.83;;;;;;;;;;2104978;28;20307;-77
2021/06/12 03:59:06;;;;;;;38.77;35.00;;;;;;;12.79;nan;98982.75;2105228;28;20689;-77
2021/06/12 04:00:08;;;;;;;38.67;34.58;;;;;;;;;;2105913;28;20213;-77
2021/06/12 04:01:13;;;;;;;42.58;34.20;;;;;;;;;;2105456;28;20233;-77
2021/06/12 04:02:15;;;;;;;41.35;36.72;;;;;;;;;;2105710;28;20306;-77
2021/06/12 04:03:16;;;;;;;40.13;35.42;;;;;;;;;;2104747;28;20225;-76
2021/06/12 04:04:16;;;;;;;42.25;36.10;;;;;;;;;;2105242;28;20665;-77
2021/06/12 04:05:19;;;;;;;38.93;34.77;;;;;;;;;;2104736;28;20278;-77
2021/06/12 04:06:20;;;;;;;41.35;36.10;;;;;;;;;;2105213;28;20769;-77
2021/06/12 04:07:20;;;;;;;48.47;38.22;;;;;;;;;;2105851;28;20305;-77
2021/06/12 04:08:21;;;;;;;40.37;35.90;;;;;;;;;;2105884;28;20228;-77
2021/06/12 04:09:22;;;;;;;43.60;36.08;;;;;;;13.00;nan;98973.03;2105861;28;20573;-77
2021/06/12 04:10:23;;;;;;;47.60;37.63;;;;;;;;;;2105430;28;20225;-77
2021/06/12 04:11:24;;;;;;;42.33;37.22;;;;;;;;;;2104854;28;20229;-77
2021/06/12 04:12:25;;;;;;;43.47;36.37;;;;;;;;;;2105031;28;20225;-77
2021/06/12 04:13:26;;;;;;;41.73;36.87;;;;;;;;;;2105663;28;20312;-77
2021/06/12 04:14:27;;;;;;;41.50;36.97;;;;;;;;;;2104813;28;20342;-76
2021/06/12 04:15:28;;;;;;;46.50;38.00;;;;;;;;;;2104711;28;20583;-77
2021/06/12 04:16:29;;;;;;;45.07;37.67;;;;;;;;;;2096403;28;20244;-77
2021/06/12 04:17:29;;;;;;;47.60;38.20;;;;;;;;;;2104972;28;20562;-77
2021/06/12 04:18:30;;;;;;;42.50;37.73;;;;;;;;;;2105760;28;20237;-77
2021/06/12 04:19:31;;;;;;;46.70;39.17;;;;;;;;;;2104626;28;20217;-77
2021/06/12 04:20:34;;;;;;;49.80;40.53;;;;;;;;;;2105072;28;20479;-77
2021/06/12 04:21:34;;;;;;;45.10;38.95;;;;;;;;;;2104541;28;20224;-77
2021/06/12 04:22:35;;;;;;;47.23;37.57;;;;;;;;;;2102815;28;20323;-77
2021/06/12 04:23:36;;;;;;;42.73;37.03;;;;;;;;;;2105716;28;20796;-77
2021/06/12 04:24:37;;;;;;;43.63;37.33;;;;;;;;;;2105540;28;20444;-77
2021/06/12 04:25:38;;;;;;;43.80;39.05;;;;;;;;;;2104514;28;20720;-76
2021/06/12 04:26:39;;;;;;;43.40;38.50;;;;;;;;;;2096311;28;20607;-76
2021/06/12 04:27:39;;;;;;;41.70;37.25;;;;;;;;;;2104939;28;20225;-79
2021/06/12 04:28:40;;;;;;;42.90;38.33;;;;;;;;;;2105770;28;20683;-77
2021/06/12 04:29:41;;;;;;;42.63;38.05;;;;;;;;;;2105669;28;20232;-76
2021/06/12 04:30:42;;;;;;;42.83;37.43;;;;;;;13.69;nan;99009.78;2105617;28;20228;-79
2021/06/12 04:31:42;;;;;;;41.30;36.88;;;;;;;;;;2104340;28;20233;-77
2021/06/12 04:32:44;;;;;;;41.17;36.73;;;;;;;;;;2104768;28;20225;-77
2021/06/12 04:33:44;;;;;;;42.07;37.10;;;;;;;;;;2104488;28;20221;-77
2021/06/12 04:34:45;;;;;;;46.10;39.20;;;;;;;;;;2104338;28;20459;-76
2021/06/12 04:35:47;;;;;;;41.17;36.00;;;;;;;;;;2104927;28;20274;-78
2021/06/12 04:36:48;;;;;;;43.15;38.40;;;;;;;;;;2105655;28;20444;-76
2021/06/12 04:37:49;;;;;;;51.53;39.35;;;;;;;13.98;nan;98899.09;2105679;28;20244;-76
2021/06/12 04:38:50;;;;;;;40.60;36.17;;;;;;;;;;2096410;28;20308;-77
2021/06/12 04:39:51;;;;;;;43.97;38.30;;;;;;;14.04;nan;98907.78;2096540;28;20230;-78
2021/06/12 04:40:52;;;;;;;40.03;35.77;;;;;;;;;;2105550;28;20251;-76
2021/06/12 04:41:52;;;;;;;39.73;35.60;;;;;;;;;;2104345;28;20270;-75
2021/06/12 04:42:54;;;;;;;40.00;35.00;;;;;;;;;;2092124;28;20509;-76
2021/06/12 04:43:54;;;;;;;40.22;36.10;;;;;;;;;;2100556;28;20221;-77
2021/06/12 04:44:55;;;;;;;41.37;36.90;;;;;;;;;;2114519;27;20705;-76
2021/06/12 04:45:56;;;;;;;40.97;36.67;;;;;;;;;;2113172;28;20220;-76
2021/06/12 04:46:57;;;;;;;40.83;36.63;;;;;;;;;;2101863;28;20225;-77
2021/06/12 04:47:57;;;;;;;40.80;36.47;;;;;;;;;;2105614;28;20711;-79
2021/06/12 04:48:58;;;;;;;39.47;35.37;;;;;;;;;;2104638;28;20531;-79
2021/06/12 04:49:59;;;;;;;40.43;36.23;;;;;;;;;;2104665;28;20667;-78
2021/06/12 04:51:02;;;;;;;39.60;35.63;;;;;;;;;;2104889;28;20926;-78
2021/06/12 04:52:03;;;;;;;40.13;35.75;;;;;;;;;;2104697;28;20228;-79
2021/06/12 04:53:04;;;;;;;44.77;35.97;;;;;;;;;;2112648;27;20216;-78
2021/06/12 04:54:05;;;;;;;40.65;36.10;;;;;;;;;;2104480;28;20233;-79
2021/06/12 04:55:06;;;;;;;38.30;34.43;;;;;;;;;;2096004;28;20308;-79
2021/06/12 04:56:07;;;;;;;40.85;36.47;;;;;;;14.56;nan;98978.13;2096360;28;20210;-78
2021/06/12 04:57:08;;;;;;;40.33;35.13;;;;;;;;;;2104411;28;20799;-78
2021/06/12 04:58:10;;;;;;;40.67;35.28;;;;;;;;;;2105486;28;20695;-79
2021/06/12 04:59:11;;;;;;;40.15;35.85;;;;;;;;;;2105462;28;20224;-79
2021/06/12 05:00:13;;;;;;;39.40;35.10;;;;;;;;;;2105292;28;20233;-79
2021/06/12 05:01:14;;;;;;;43.70;35.45;;;;;;;;;;2105291;28;20290;-78
2021/06/12 05:02:14;;;;;;;38.20;34.30;;;;;;;;;;2105468;28;20748;-78
2021/06/12 05:03:15;;;;;;;41.13;33.97;;;;;;;;;;2103703;28;20480;-78
2021/06/12 05:04:16;;;;;;;42.35;35.70;;;;;;;;;;2095725;28;20244;-78
2021/06/12 05:05:17;;;;;;;40.43;34.23;;;;;;;;;;2102653;28;20237;-79
2021/06/12 05:06:19;;;;;;;41.27;35.40;;;;;;;;;;2105273;28;20244;-77
2021/06/12 05:07:20;;;;;;;38.08;34.30;;;;;;;;;;2105335;28;20497;-79
2021/06/12 05:08:20;;;;;;;40.40;35.47;;;;;;;;;;2105232;28;20252;-78
2021/06/12 05:09:21;;;;;;;42.53;35.33;;;;;;;;;;2105286;28;20464;-78
2021/06/12 05:10:22;;;;;;;39.80;35.33;;;;;;;;;;2102486;28;20233;-79
2021/06/12 05:11:23;;;;;;;39.53;35.40;;;;;;;;;;2104120;28;20452;-78
2021/06/12 05:12:24;;;;;;;42.83;35.17;;;;;;;;;;2103868;28;20225;-78
2021/06/12 05:13:25;;;;;;;41.92;35.20;;;;;;;;;;2096263;28;20474;-78
2021/06/12 05:14:26;;;;;;;36.75;32.85;;;;;;;;;;2096156;28;20226;-78
2021/06/12 05:15:30;;;;;;;37.77;33.70;;;;;;;;;;2095455;28;20727;-79
2021/06/12 05:16:33;;;;;;;37.77;34.07;;;;;;;;;;2112773;28;20228;-78
2021/06/12 05:17:34;;;;;;;39.72;34.97;;;;;;;;;;2113152;27;20988;-78
2021/06/12 05:18:40;;;;;;;39.50;35.20;;;;;;;;;;2102793;28;20221;-78
2021/06/12 05:19:41;;;;;;;37.92;34.10;;;;;;;;;;2100308;28;21009;-78
2021/06/12 05:20:41;;;;;;;38.00;34.23;;;;;;;;;;2104398;28;20240;-78
2021/06/12 05:21:45;;;;;;;38.60;34.63;;;;;;;;;;2105225;28;20478;-78
2021/06/12 05:22:46;;;;;;;39.28;34.92;;;;;;;22.40;100.00;57745.03;2104347;28;20273;-78
2021/06/12 05:23:47;;;;;;;38.23;34.13;;;;;;;;;;2104574;28;20275;-78
2021/06/12 05:24:47;;;;;;;40.30;33.97;;;;;;;;;;2103842;28;20217;-78
2021/06/12 05:25:49;;;;;;;37.40;33.43;;;;;;;15.66;nan;98883.84;2104486;28;20879;-78
2021/06/12 05:26:49;;;;;;;37.50;33.10;;;;;;;;;;2104369;28;20217;-78
2021/06/12 05:27:50;;;;;;;36.70;32.90;;;;;;;;;;2103946;28;20217;-78
2021/06/12 05:28:51;;;;;;;38.28;34.17;;;;;;;;;;2104432;28;20232;-78
2021/06/12 05:29:52;;;;;;;36.90;33.13;;;;;;;;;;2105197;28;20221;-78
2021/06/12 05:30:53;;;;;;;36.80;33.20;;;;;;;15.75;nan;98888.00;2103892;28;20598;-77
2021/06/12 05:31:54;;;;;;;37.37;33.37;;;;;;;;;;2104529;28;20221;-78